Time;durP1;ratioP1;P1;durP2;ratioP2;P2;SDS_P1;SDS_P2;PMS_P1;PMS_P2;Temp;Humidity;BMP_temperature;BMP_pressure;BME280_temperature;BME280_humidity;BME280_pressure;Samples;Min_cycle;Max_cycle;Signal;HPM_P1;HPM_P2
2022/07/25 10:42:25;;;;;;;0.00;0.00;;;;;;;30.26;100.00;100807.41;2615995;39;20904;-66
2022/07/25 10:44:57;;;;;;;0.85;0.85;;;;;;;29.96;100.00;100810.75;2615725;54;20150;-65
2022/07/25 10:47:29;;;;;;;2.92;2.33;;;;;;;29.65;100.00;100803.47;2615799;54;20149;-65
2022/07/25 10:50:03;;;;;;;3.25;2.00;;;;;;;30.13;100.00;100811.84;2615938;54;20150;-65
2022/07/25 10:53:06;;;;;;;0.00;0.00;;;;;;;30.22;100.00;100790.97;2615071;54;20681;-67
2022/07/25 10:55:38;;;;;;;0.90;0.77;;;;;;;30.20;100.00;100796.56;2615921;39;20654;-66
2022/07/25 10:58:11;;;;;;;0.10;0.10;;;;;;;30.25;100.00;100795.09;2614979;54;20167;-66
2022/07/25 11:00:47;;;;;;;9.65;1.17;;;;;;;30.15;100.00;100804.41;2615230;54;20145;-65
2022/07/25 11:03:17;;;;;;;1.15;1.05;;;;;;;29.99;100.00;100772.84;2615363;54;20141;-66
2022/07/25 11:05:50;;;;;;;1.33;1.15;;;;;;;29.90;100.00;100786.69;2615366;54;20141;-65
2022/07/25 11:08:20;;;;;;;0.63;0.63;;;;;;;29.93;100.00;100786.28;2616187;54;20681;-65
2022/07/25 11:10:54;;;;;;;2.53;2.45;;;;;;;29.77;100.00;100782.22;2616937;54;20142;-65
2022/07/25 11:13:27;;;;;;;0.65;0.65;;;;;;;30.07;100.00;100802.00;2616722;54;20163;-66
2022/07/25 11:15:59;;;;;;;1.55;1.40;;;;;;;29.90;100.00;100779.47;2616588;54;20157;-65
2022/07/25 11:18:38;;;;;;;4.68;2.10;;;;;;;29.99;100.00;100790.75;2616599;54;20142;-65
2022/07/25 11:21:10;;;;;;;0.68;0.63;;;;;;;29.59;100.00;100790.97;2616794;47;20228;-65
2022/07/25 11:23:42;;;;;;;0.25;0.25;;;;;;;29.85;100.00;100787.28;2616677;54;20142;-65
2022/07/25 11:26:14;;;;;;;1.35;1.25;;;;;;;29.69;100.00;100772.59;2616831;54;20142;-65
2022/07/25 11:28:49;;;;;;;0.75;0.75;;;;;;;29.77;100.00;100780.34;2616477;54;20672;-65
2022/07/25 11:31:20;;;;;;;0.35;0.35;;;;;;;29.66;100.00;100782.91;2616712;54;20141;-65
2022/07/25 11:33:51;;;;;;;0.35;0.35;;;;;;;29.87;100.00;100779.91;2616580;54;20146;-66
2022/07/25 11:36:21;;;;;;;0.85;0.85;;;;;;;29.97;100.00;100780.25;2616635;54;20157;-65
2022/07/25 11:38:52;;;;;;;0.30;0.30;;;;;;;29.75;100.00;100782.44;2616457;54;20181;-66
2022/07/25 11:41:30;;;;;;;5.00;3.95;;;;;;;29.87;100.00;100774.56;2616588;54;20743;-65
2022/07/25 11:44:03;;;;;;;0.52;0.52;;;;;;;30.24;100.00;100774.72;2616218;54;20141;-65
2022/07/25 11:46:43;;;;;;;1.98;1.88;;;;;;;30.26;100.00;100780.66;2616489;54;20225;-65
2022/07/25 11:49:13;;;;;;;0.20;0.20;;;;;;;30.18;100.00;100776.38;2616405;54;20179;-66
2022/07/25 11:51:45;;;;;;;0.88;0.88;;;;;;;30.08;100.00;100776.91;2616763;54;20224;-65
2022/07/25 11:54:15;;;;;;;3.50;1.33;;;;;;;30.29;100.00;100775.69;2616601;54;20628;-66
2022/07/25 11:56:46;;;;;;;1.55;1.08;;;;;;;30.68;100.00;100777.22;2616576;54;20161;-65
2022/07/25 11:59:18;;;;;;;3.20;2.72;;;;;;;30.63;100.00;100774.38;2616468;47;20152;-65
2022/07/25 12:01:49;;;;;;;2.25;2.05;;;;;;;30.44;100.00;100770.84;2616451;54;20153;-67
2022/07/25 12:04:21;;;;;;;1.17;0.90;;;;;;;30.45;100.00;100779.72;2616966;39;20557;-66
2022/07/25 12:06:51;;;;;;;1.42;1.33;;;;;;;30.39;100.00;100776.00;2616513;54;20149;-66
2022/07/25 12:09:24;;;;;;;0.90;0.90;;;;;;;30.47;100.00;100780.28;2616274;54;20168;-65
2022/07/25 12:12:04;;;;;;;0.63;0.55;;;;;;;30.65;100.00;100777.66;2616459;54;20157;-65
2022/07/25 12:14:46;;;;;;;1.55;1.42;;;;;;;30.73;100.00;100774.69;2616181;54;20152;-66
2022/07/25 12:17:17;;;;;;;1.25;1.10;;;;;;;31.13;100.00;100774.28;2616242;54;20689;-66
2022/07/25 12:19:48;;;;;;;1.33;0.70;;;;;;;31.14;100.00;100765.97;2616612;39;20568;-65
2022/07/25 12:22:18;;;;;;;1.85;0.38;;;;;;;31.66;100.00;100763.69;2616342;54;20176;-65
2022/07/25 12:24:49;;;;;;;1.17;0.43;;;;;;;32.68;92.87;100763.25;2616142;54;20146;-66
2022/07/25 12:27:19;;;;;;;2.13;1.83;;;;;;;33.03;87.93;100751.59;2615887;54;20146;-66
2022/07/25 12:29:52;;;;;;;0.80;0.50;;;;;;;33.91;80.92;100751.13;2615654;54;20152;-66
2022/07/25 12:32:22;;;;;;;1.13;0.93;;;;;;;34.25;73.75;100763.59;2615920;54;20141;-65
2022/07/25 12:34:53;;;;;;;0.30;0.30;;;;;;;35.80;64.71;100748.78;2615700;54;20149;-66
2022/07/25 12:37:23;;;;;;;1.65;1.45;;;;;;;34.84;67.86;100755.78;2615738;54;20145;-66
2022/07/25 12:39:53;;;;;;;0.40;0.40;;;;;;;35.09;65.75;100750.72;2615801;47;20149;-66
2022/07/25 12:42:23;;;;;;;1.33;0.77;;;;;;;33.90;71.09;100744.13;2615252;54;20172;-66
2022/07/25 12:44:57;;;;;;;1.55;1.45;;;;;;;33.98;72.03;100746.41;2615543;50;20160;-65
2022/07/25 12:47:29;;;;;;;0.95;0.95;;;;;;;34.42;68.88;100742.81;2615571;47;20153;-65
2022/07/25 12:49:59;;;;;;;0.20;0.20;;;;;;;33.70;72.51;100734.63;2615627;54;20145;-67
2022/07/25 12:52:29;;;;;;;0.63;0.63;;;;;;;34.28;70.38;100738.84;2616640;39;20556;-67
2022/07/25 12:54:59;;;;;;;0.38;0.38;;;;;;;35.51;64.12;100735.53;2616103;54;20684;-67
2022/07/25 12:57:30;;;;;;;1.17;1.08;;;;;;;35.39;62.27;100734.88;2616057;54;20156;-67
2022/07/25 13:00:03;;;;;;;0.82;0.77;;;;;;;35.07;65.20;100739.34;2615934;39;20833;-66
2022/07/25 13:02:33;;;;;;;0.17;0.17;;;;;;;36.00;61.07;100730.03;2616107;54;20177;-67
2022/07/25 13:05:03;;;;;;;1.33;1.23;;;;;;;35.89;61.67;100721.06;2616334;54;20145;-65
2022/07/25 13:07:35;;;;;;;0.65;0.50;;;;;;;35.49;62.37;100729.59;2616110;54;20685;-67
2022/07/25 13:10:07;;;;;;;0.52;0.52;;;;;;;36.52;59.30;100724.72;2616150;54;20149;-66
2022/07/25 13:12:37;;;;;;;0.90;0.90;;;;;;;36.20;58.55;100721.28;2616231;54;20149;-65
2022/07/25 13:15:11;;;;;;;0.15;0.15;;;;;;;36.74;57.04;100724.59;2616282;39;20655;-66
2022/07/25 13:17:42;;;;;;;1.35;0.88;;;;;;;36.37;56.03;100725.47;2616195;54;20150;-66
2022/07/25 13:20:14;;;;;;;0.80;0.80;;;;;;;35.33;58.09;100716.19;2616037;54;20141;-64
2022/07/25 13:22:44;;;;;;;0.45;0.45;;;;;;;34.80;61.61;100723.13;2616303;54;20157;-66
2022/07/25 13:25:14;;;;;;;0.25;0.08;;;;;;;35.39;61.34;100718.69;2615889;47;20160;-66
2022/07/25 13:27:45;;;;;;;1.17;1.15;;;;;;;35.02;60.69;100705.06;2616010;54;20152;-66
2022/07/25 13:30:18;;;;;;;0.38;0.35;;;;;;;34.38;64.54;100720.13;2615894;54;20149;-66
2022/07/25 13:32:48;;;;;;;0.85;0.85;;;;;;;34.29;66.13;100710.84;2616070;54;20665;-66
2022/07/25 13:35:19;;;;;;;5.68;2.92;;;;;;;34.64;65.72;100703.25;2615880;54;20145;-65
2022/07/25 13:37:52;;;;;;;0.57;0.50;;;;;;;35.22;62.09;100705.31;2615990;46;20196;-64
2022/07/25 13:40:23;;;;;;;0.57;0.57;;;;;;;34.29;65.80;100706.25;2615878;54;20181;-65
2022/07/25 13:42:53;;;;;;;1.65;0.50;;;;;;;34.03;68.67;100706.91;2615819;54;20868;-66
2022/07/25 13:45:26;;;;;;;0.45;0.45;;;;;;;35.01;66.98;100697.22;2616471;54;20172;-66
2022/07/25 13:47:56;;;;;;;0.35;0.35;;;;;;;34.57;67.33;100704.47;2615694;54;20146;-66
2022/07/25 13:50:46;;;;;;;1.80;1.00;;;;;;;34.15;67.98;100694.19;2616306;54;20145;-65
2022/07/25 13:53:16;;;;;;;0.40;0.40;;;;;;;34.69;67.69;100695.22;2616444;54;20265;-65
2022/07/25 13:55:47;;;;;;;0.50;0.50;;;;;;;35.12;65.56;100696.25;2616668;54;20705;-65
2022/07/25 13:58:17;;;;;;;1.45;1.30;;;;;;;35.01;64.76;100697.22;2616692;54;20145;-65
2022/07/25 14:00:50;;;;;;;0.20;0.20;;;;;;;34.51;66.32;100692.78;2616916;54;20148;-66
2022/07/25 14:03:21;;;;;;;0.60;0.60;;;;;;;34.12;70.21;100683.06;2616857;54;20685;-65
2022/07/25 14:05:51;;;;;;;1.42;1.33;;;;;;;34.00;70.73;100676.97;2616412;54;20145;-65
2022/07/25 14:08:22;;;;;;;0.70;0.28;;;;;;;34.75;67.92;100685.31;2616661;54;20145;-66
2022/07/25 14:10:52;;;;;;;1.27;1.20;;;;;;;33.52;75.83;100689.09;2616868;54;20184;-66
2022/07/25 14:13:22;;;;;;;1.45;1.35;;;;;;;34.40;71.65;100687.53;2616765;54;20170;-66
2022/07/25 14:15:55;;;;;;;1.48;1.38;;;;;;;34.18;69.74;100677.56;2616797;54;20153;-66
2022/07/25 14:18:25;;;;;;;0.43;0.43;;;;;;;34.43;70.87;100677.06;2616926;54;20141;-66
2022/07/25 14:20:56;;;;;;;1.55;1.45;;;;;;;34.38;72.05;100676.19;2616826;54;20150;-67
2022/07/25 14:23:26;;;;;;;2.92;1.88;;;;;;;33.47;76.81;100678.22;2616515;54;21109;-66
2022/07/25 14:26:00;;;;;;;0.98;0.90;;;;;;;33.73;77.00;100677.63;2616267;54;20232;-67
2022/07/25 14:28:31;;;;;;;1.10;1.10;;;;;;;34.83;71.24;100674.06;2616359;54;20142;-67
2022/07/25 14:31:04;;;;;;;0.43;0.43;;;;;;;34.95;68.63;100682.84;2616299;54;20205;-66
2022/07/25 14:33:38;;;;;;;1.05;0.95;;;;;;;33.39;75.08;100684.81;2616266;54;20181;-66
2022/07/25 14:36:10;;;;;;;0.43;0.43;;;;;;;34.02;73.11;100672.16;2616309;54;20142;-66
2022/07/25 14:38:40;;;;;;;1.20;0.93;;;;;;;35.35;66.16;100665.50;2616461;39;20588;-67
2022/07/25 14:41:10;;;;;;;0.60;0.60;;;;;;;34.82;67.96;100672.47;2616110;54;20177;-67
2022/07/25 14:43:42;;;;;;;0.20;0.20;;;;;;;35.01;66.21;100667.53;2616808;31;20746;-66
2022/07/25 14:46:15;;;;;;;0.00;0.00;;;;;;;34.22;69.49;100675.19;2616004;54;20145;-66
2022/07/25 14:48:45;;;;;;;0.55;0.55;;;;;;;33.36;79.21;100671.03;2615875;54;20196;-66
2022/07/25 14:51:16;;;;;;;0.10;0.10;;;;;;;33.48;79.55;100660.22;2616141;54;20141;-65
2022/07/25 14:53:46;;;;;;;0.80;0.80;;;;;;;33.72;77.91;100669.78;2615788;54;20146;-64
2022/07/25 14:56:22;;;;;;;1.27;1.27;;;;;;;33.69;77.45;100663.03;2615993;54;20149;-66
2022/07/25 14:58:52;;;;;;;0.60;0.60;;;;;;;34.83;70.81;100654.41;2615964;54;21123;-65
2022/07/25 15:01:25;;;;;;;0.35;0.35;;;;;;;35.84;62.20;100655.38;2616144;39;20630;-65
2022/07/25 15:03:55;;;;;;;0.10;0.10;;;;;;;34.99;66.32;100658.88;2615759;54;20153;-65
2022/07/25 15:06:26;;;;;;;0.50;0.50;;;;;;;35.26;64.52;100651.66;2616380;39;20571;-65
2022/07/25 15:08:58;;;;;;;0.65;0.65;;;;;;;35.49;63.01;100639.69;2615654;54;20153;-66
2022/07/25 15:11:28;;;;;;;0.85;0.65;;;;;;;34.95;66.41;100650.47;2616696;39;20557;-65
2022/07/25 15:13:58;;;;;;;0.40;0.40;;;;;;;34.99;64.66;100645.38;2616475;54;20142;-67
2022/07/25 15:16:31;;;;;;;1.02;0.93;;;;;;;34.48;66.83;100646.66;2616320;54;20153;-66
2022/07/25 15:19:02;;;;;;;0.43;0.22;;;;;;;34.40;66.78;100647.91;2615792;54;20175;-65
2022/07/25 15:21:45;;;;;;;0.13;0.13;;;;;;;35.13;65.67;100641.22;2615833;54;20156;-65
2022/07/25 15:24:16;;;;;;;0.00;0.00;;;;;;;35.61;63.57;100641.16;2615967;54;20145;-65
2022/07/25 15:26:46;;;;;;;1.70;1.60;;;;;;;35.15;65.09;100647.19;2615765;54;20149;-66
2022/07/25 15:29:19;;;;;;;0.70;0.70;;;;;;;34.10;71.69;100652.88;2615748;54;20152;-66
2022/07/25 15:31:52;;;;;;;0.08;0.08;;;;;;;33.96;71.21;100660.47;2615815;54;20188;-66
2022/07/25 15:34:22;;;;;;;0.43;0.43;;;;;;;34.13;71.53;100652.38;2615776;54;20157;-66
2022/07/25 15:36:53;;;;;;;0.70;0.28;;;;;;;34.70;70.00;100650.22;2615783;54;20146;-66
2022/07/25 15:39:23;;;;;;;2.03;0.98;;;;;;;34.26;71.28;100662.84;2616401;39;20563;-66
2022/07/25 15:41:53;;;;;;;0.03;0.03;;;;;;;33.55;77.71;100660.88;2616039;54;20693;-65
2022/07/25 15:44:24;;;;;;;0.73;0.73;;;;;;;33.71;75.86;100668.97;2616158;54;20142;-66
2022/07/25 15:46:57;;;;;;;0.40;0.40;;;;;;;33.64;77.94;100660.25;2616525;39;20535;-65
2022/07/25 15:49:27;;;;;;;0.00;0.00;;;;;;;34.18;74.83;100649.78;2615966;54;20688;-66
2022/07/25 15:51:58;;;;;;;0.00;0.00;;;;;;;33.71;76.73;100658.22;2615907;54;20141;-66
2022/07/25 15:54:28;;;;;;;0.40;0.40;;;;;;;33.84;75.13;100654.38;2615691;54;20145;-66
2022/07/25 15:56:59;;;;;;;0.25;0.25;;;;;;;33.76;75.42;100654.78;2615708;54;20164;-66
2022/07/25 15:59:29;;;;;;;0.00;0.00;;;;;;;33.53;77.71;100653.06;2615773;54;20149;-66
2022/07/25 16:02:07;;;;;;;0.00;0.00;;;;;;;34.04;73.48;100657.38;2615709;47;20168;-65
2022/07/25 16:04:37;;;;;;;0.57;0.57;;;;;;;34.13;70.93;100652.38;2615771;47;20167;-66
2022/07/25 16:07:07;;;;;;;0.52;0.52;;;;;;;33.64;76.46;100659.41;2615632;54;20153;-65
2022/07/25 16:09:38;;;;;;;0.45;0.45;;;;;;;33.70;77.34;100659.25;2615579;54;20168;-65
2022/07/25 16:12:09;;;;;;;1.48;1.10;;;;;;;33.24;80.36;100660.34;2615686;54;20145;-66
2022/07/25 16:14:40;;;;;;;0.60;0.47;;;;;;;33.42;81.03;100662.81;2616473;54;20142;-64
2022/07/25 16:17:13;;;;;;;0.15;0.15;;;;;;;33.73;78.84;100663.38;2616510;54;20142;-64
2022/07/25 16:19:43;;;;;;;0.73;0.73;;;;;;;33.96;78.44;100659.66;2616699;54;20149;-67
2022/07/25 16:22:13;;;;;;;1.33;0.63;;;;;;;33.50;76.83;100664.31;2616420;47;20151;-66
2022/07/25 16:24:44;;;;;;;0.00;0.00;;;;;;;33.82;75.25;100656.50;2615998;54;20154;-65
2022/07/25 16:27:14;;;;;;;1.15;0.98;;;;;;;32.40;85.65;100652.97;2615976;54;20152;-65
2022/07/25 16:29:44;;;;;;;0.30;0.30;;;;;;;32.16;91.86;100656.75;2615942;54;20145;-65
2022/07/25 16:32:17;;;;;;;0.10;0.10;;;;;;;32.21;93.45;100657.69;2616116;47;20158;-66
2022/07/25 16:34:48;;;;;;;0.00;0.00;;;;;;;32.66;91.26;100657.06;2616265;54;20169;-64
2022/07/25 16:37:19;;;;;;;0.00;0.00;;;;;;;32.65;87.05;100656.25;2615903;54;20146;-65
2022/07/25 16:39:49;;;;;;;0.15;0.15;;;;;;;32.61;87.49;100652.41;2616282;47;20149;-65
2022/07/25 16:42:19;;;;;;;0.30;0.30;;;;;;;32.69;87.24;100654.72;2616291;54;20189;-66
2022/07/25 16:44:50;;;;;;;0.10;0.10;;;;;;;32.46;90.33;100652.84;2616476;39;20636;-65
2022/07/25 16:47:23;;;;;;;0.38;0.38;;;;;;;31.77;98.11;100655.56;2615981;54;20145;-65
2022/07/25 16:49:53;;;;;;;0.20;0.10;;;;;;;31.73;100.00;100663.25;2616051;54;20710;-66
2022/07/25 16:52:23;;;;;;;0.43;0.28;;;;;;;31.55;100.00;100664.16;2616078;54;20138;-65
2022/07/25 16:54:54;;;;;;;0.52;0.52;;;;;;;31.26;100.00;100661.47;2616187;54;20146;-66
2022/07/25 16:57:24;;;;;;;1.80;1.75;;;;;;;31.27;100.00;100653.19;2616067;54;20146;-64
2022/07/25 16:59:54;;;;;;;0.28;0.10;;;;;;;31.45;100.00;100653.16;2616120;54;20150;-65
2022/07/25 17:02:27;;;;;;;0.43;0.43;;;;;;;31.32;100.00;100665.91;2616125;54;20150;-65
2022/07/25 17:04:59;;;;;;;0.70;0.70;;;;;;;31.31;100.00;100666.97;2616231;54;20176;-65
2022/07/25 17:07:29;;;;;;;1.10;0.95;;;;;;;30.97;100.00;100663.91;2616392;54;20152;-65
2022/07/25 17:10:00;;;;;;;0.20;0.20;;;;;;;30.70;100.00;100662.59;2616538;46;20164;-64
2022/07/25 17:12:30;;;;;;;2.88;1.25;;;;;;;30.73;100.00;100669.38;2617295;54;20252;-66
2022/07/25 17:15:01;;;;;;;0.40;0.40;;;;;;;30.24;100.00;100667.63;2617110;54;20158;-67
2022/07/25 17:17:35;;;;;;;0.00;0.00;;;;;;;30.14;100.00;100666.25;2616955;54;20146;-66
2022/07/25 17:20:06;;;;;;;0.00;0.00;;;;;;;29.85;100.00;100671.47;2617420;39;20429;-65
2022/07/25 17:22:37;;;;;;;0.22;0.22;;;;;;;29.67;100.00;100677.56;2617377;47;20149;-65
2022/07/25 17:25:09;;;;;;;0.17;0.17;;;;;;;29.48;100.00;100681.19;2617367;54;20146;-66
2022/07/25 17:27:39;;;;;;;0.00;0.00;;;;;;;29.30;100.00;100676.56;2617587;47;20197;-64
2022/07/25 17:30:10;;;;;;;0.10;0.10;;;;;;;29.05;100.00;100679.13;2615495;46;20172;-65
2022/07/25 17:32:44;;;;;;;0.00;0.00;;;;;;;28.87;100.00;100683.53;2615994;54;20146;-65
2022/07/25 17:35:14;;;;;;;0.00;0.00;;;;;;;28.77;100.00;100676.78;2615865;54;20145;-66
2022/07/25 17:37:44;;;;;;;0.65;0.65;;;;;;;28.44;100.00;100683.25;2616451;39;20549;-67
2022/07/25 17:40:15;;;;;;;0.00;0.00;;;;;;;28.45;100.00;100676.88;2616619;47;20692;-66
2022/07/25 17:42:46;;;;;;;0.10;0.10;;;;;;;28.37;100.00;100670.72;2616395;54;20180;-66
2022/07/25 17:45:17;;;;;;;0.00;0.00;;;;;;;28.39;100.00;100683.88;2616290;47;20146;-66
2022/07/25 17:47:51;;;;;;;0.00;0.00;;;;;;;28.27;100.00;100691.69;2616109;47;20150;-66
2022/07/25 17:50:22;;;;;;;0.75;0.47;;;;;;;28.16;100.00;100695.00;2616334;54;20171;-65
2022/07/25 17:52:59;;;;;;;0.52;0.52;;;;;;;27.95;100.00;100689.84;2616780;39;20686;-66
2022/07/25 17:55:30;;;;;;;0.73;0.73;;;;;;;27.89;100.00;100691.47;2616225;54;20670;-65
2022/07/25 17:58:07;;;;;;;0.75;0.75;;;;;;;27.76;100.00;100704.81;2615909;54;20145;-66
2022/07/25 18:00:37;;;;;;;0.80;0.57;;;;;;;27.73;100.00;100702.53;2615968;47;20137;-65
2022/07/25 18:03:10;;;;;;;0.38;0.38;;;;;;;27.62;100.00;100703.13;2615939;54;20153;-64
2022/07/25 18:05:41;;;;;;;0.52;0.52;;;;;;;27.59;100.00;100713.41;2615950;47;20149;-65
2022/07/25 18:08:11;;;;;;;0.25;0.25;;;;;;;27.70;100.00;100712.78;2616158;54;20145;-64
2022/07/25 18:10:42;;;;;;;0.00;0.00;;;;;;;27.83;100.00;100710.16;2616281;47;20156;-66
2022/07/25 18:13:13;;;;;;;0.10;0.10;;;;;;;27.78;100.00;100718.75;2616451;47;20141;-66
2022/07/25 18:15:43;;;;;;;0.00;0.00;;;;;;;27.69;100.00;100711.97;2616401;54;20141;-66
2022/07/25 18:18:17;;;;;;;0.20;0.20;;;;;;;27.62;100.00;100723.66;2616312;47;20168;-66
2022/07/25 18:20:49;;;;;;;0.00;0.00;;;;;;;27.69;100.00;100725.28;2615990;47;20768;-65
2022/07/25 18:23:20;;;;;;;0.10;0.10;;;;;;;27.64;100.00;100719.78;2616130;47;20165;-65
2022/07/25 18:25:50;;;;;;;0.40;0.10;;;;;;;27.65;100.00;100723.22;2616092;47;20163;-65
2022/07/25 18:28:22;;;;;;;1.27;1.27;;;;;;;27.65;100.00;100723.22;2616095;54;20154;-65
2022/07/25 18:30:54;;;;;;;0.20;0.20;;;;;;;27.57;100.00;100726.09;2615607;54;20153;-65
2022/07/25 18:33:27;;;;;;;0.00;0.00;;;;;;;27.62;100.00;100718.31;2615755;54;20161;-65
2022/07/25 18:35:57;;;;;;;0.00;0.00;;;;;;;27.71;100.00;100722.44;2616150;54;20152;-65
2022/07/25 18:38:34;;;;;;;1.60;1.55;;;;;;;27.68;100.00;100722.84;2615883;54;20180;-66
2022/07/25 18:41:05;;;;;;;0.00;0.00;;;;;;;27.60;100.00;100731.03;2616706;47;20193;-67
2022/07/25 18:43:55;;;;;;;0.00;0.00;;;;;;;27.70;100.00;100734.94;2616820;46;20157;-66
2022/07/25 18:46:28;;;;;;;0.00;0.00;;;;;;;27.76;100.00;100728.00;2616751;54;20157;-64
2022/07/25 18:49:03;;;;;;;0.20;0.20;;;;;;;27.73;100.00;100725.72;2616869;47;20190;-66
2022/07/25 18:51:33;;;;;;;0.00;0.00;;;;;;;27.87;100.00;100730.03;2616606;47;20205;-65
2022/07/25 18:54:04;;;;;;;0.30;0.28;;;;;;;27.80;100.00;100727.38;2616561;47;20149;-65
2022/07/25 18:56:34;;;;;;;0.00;0.00;;;;;;;27.88;100.00;100729.03;2616343;47;20601;-65
2022/07/25 18:59:05;;;;;;;0.40;0.40;;;;;;;27.80;100.00;100732.72;2616344;54;20145;-65
2022/07/25 19:01:36;;;;;;;0.00;0.00;;;;;;;27.79;100.00;100727.56;2616408;47;20256;-65
2022/07/25 19:04:09;;;;;;;0.00;0.00;;;;;;;27.87;100.00;100730.03;2616519;54;20141;-65
2022/07/25 19:06:40;;;;;;;0.00;0.00;;;;;;;27.88;100.00;100726.38;2616443;54;20697;-66
2022/07/25 19:09:10;;;;;;;0.35;0.35;;;;;;;27.77;100.00;100737.59;2615803;54;20780;-65
2022/07/25 19:11:41;;;;;;;0.00;0.00;;;;;;;27.74;100.00;100738.03;2615689;47;20153;-65
2022/07/25 19:14:11;;;;;;;0.00;0.00;;;;;;;27.92;100.00;100733.72;2615738;54;20157;-64
2022/07/25 19:16:42;;;;;;;0.10;0.10;;;;;;;28.07;100.00;100738.88;2615620;54;20145;-66
2022/07/25 19:19:15;;;;;;;0.00;0.00;;;;;;;28.08;100.00;100739.72;2615925;54;20681;-65
2022/07/25 19:21:45;;;;;;;0.30;0.30;;;;;;;27.99;100.00;100733.75;2616554;54;20149;-66
2022/07/25 19:24:15;;;;;;;0.00;0.00;;;;;;;28.06;100.00;100741.75;2616501;47;20157;-65
2022/07/25 19:26:46;;;;;;;0.00;0.00;;;;;;;28.14;100.00;100742.41;2616437;47;20138;-65
2022/07/25 19:29:18;;;;;;;0.00;0.00;;;;;;;28.21;100.00;100739.72;2616291;54;20142;-64
2022/07/25 19:31:48;;;;;;;0.15;0.10;;;;;;;28.03;100.00;100742.16;2616107;47;20153;-66
2022/07/25 19:34:21;;;;;;;0.40;0.40;;;;;;;27.96;100.00;100739.50;2616534;54;20146;-65
2022/07/25 19:36:53;;;;;;;0.00;0.00;;;;;;;28.01;100.00;100734.34;2616465;54;20145;-65
2022/07/25 19:39:24;;;;;;;0.00;0.00;;;;;;;28.06;100.00;100744.41;2615938;54;20181;-65
2022/07/25 19:41:54;;;;;;;0.10;0.10;;;;;;;27.97;100.00;100742.97;2616487;54;20189;-65
2022/07/25 19:44:24;;;;;;;0.00;0.00;;;;;;;27.87;100.00;100754.88;2615721;54;20157;-66
2022/07/25 19:46:55;;;;;;;0.10;0.10;;;;;;;27.58;100.00;100744.56;2616221;47;20146;-65
2022/07/25 19:49:28;;;;;;;0.03;0.03;;;;;;;27.67;100.00;100742.53;2616693;54;20161;-65
2022/07/25 19:51:58;;;;;;;0.00;0.00;;;;;;;27.68;100.00;100750.34;2616131;54;20145;-65
2022/07/25 19:54:29;;;;;;;0.00;0.00;;;;;;;27.70;100.00;100750.13;2615935;47;20153;-65
2022/07/25 19:56:59;;;;;;;0.00;0.00;;;;;;;27.56;100.00;100748.47;2615668;54;20146;-66
2022/07/25 19:59:30;;;;;;;0.60;0.60;;;;;;;27.48;100.00;100743.31;2615931;47;20152;-66
2022/07/25 20:02:00;;;;;;;0.15;0.15;;;;;;;27.54;100.00;100753.97;2615953;47;20156;-65
2022/07/25 20:04:33;;;;;;;0.00;0.00;;;;;;;27.56;100.00;100746.63;2616146;39;20615;-65
2022/07/25 20:07:03;;;;;;;0.00;0.00;;;;;;;27.73;100.00;100747.88;2616011;47;20153;-64
2022/07/25 20:09:34;;;;;;;0.00;0.00;;;;;;;27.85;100.00;100753.41;2616060;54;20156;-65
2022/07/25 20:12:04;;;;;;;0.00;0.00;;;;;;;27.84;100.00;100759.81;2616172;47;20681;-65
2022/07/25 20:14:35;;;;;;;0.00;0.00;;;;;;;27.70;100.00;100748.28;2616169;54;20150;-65
2022/07/25 20:17:06;;;;;;;0.00;0.00;;;;;;;27.77;100.00;100756.28;2615685;54;20157;-65
2022/07/25 20:19:39;;;;;;;0.00;0.00;;;;;;;27.77;100.00;100750.94;2616319;54;20168;-65
2022/07/25 20:22:10;;;;;;;0.00;0.00;;;;;;;27.80;100.00;100751.38;2616676;39;20204;-65
2022/07/25 20:24:40;;;;;;;0.00;0.00;;;;;;;27.75;100.00;100745.84;2616157;47;20142;-65
2022/07/25 20:27:10;;;;;;;0.00;0.00;;;;;;;28.04;100.00;100752.63;2616255;47;20662;-65
2022/07/25 20:29:40;;;;;;;0.28;0.28;;;;;;;27.94;100.00;100752.22;2615691;54;20982;-66
2022/07/25 20:32:11;;;;;;;0.30;0.30;;;;;;;27.75;100.00;100751.16;2615916;54;20154;-65
2022/07/25 20:34:44;;;;;;;0.00;0.00;;;;;;;26.71;100.00;100762.16;2616115;54;20141;-65
2022/07/25 20:37:14;;;;;;;3.53;1.92;;;;;;;25.07;100.00;100767.50;2615967;54;20148;-65
2022/07/25 20:39:44;;;;;;;0.45;0.43;;;;;;;24.61;100.00;100772.09;2616493;39;20575;-64
2022/07/25 20:42:17;;;;;;;0.00;0.00;;;;;;;24.75;100.00;100772.31;2616163;47;20176;-65
2022/07/25 20:44:47;;;;;;;0.43;0.43;;;;;;;24.52;100.00;100778.47;2616192;39;20615;-65
2022/07/25 20:47:17;;;;;;;0.00;0.00;;;;;;;24.71;100.00;100774.50;2616226;47;20676;-65
2022/07/25 20:49:50;;;;;;;0.00;0.00;;;;;;;24.79;100.00;100777.06;2616074;54;20529;-65
2022/07/25 20:52:20;;;;;;;0.00;0.00;;;;;;;25.01;100.00;100778.00;2616224;39;20518;-65
2022/07/25 20:54:51;;;;;;;6.07;2.70;;;;;;;25.27;100.00;100778.34;2615967;47;20145;-65
2022/07/25 20:57:21;;;;;;;0.17;0.17;;;;;;;25.12;100.00;100780.19;2616127;51;20146;-65
2022/07/25 20:59:51;;;;;;;0.47;0.47;;;;;;;24.92;100.00;100784.41;2615781;54;20149;-65
2022/07/25 21:02:21;;;;;;;0.98;0.98;;;;;;;25.29;100.00;100786.13;2615740;54;20142;-65
2022/07/25 21:04:54;;;;;;;1.58;0.82;;;;;;;25.29;100.00;100776.31;2615837;54;20145;-66
2022/07/25 21:07:25;;;;;;;0.00;0.00;;;;;;;25.63;100.00;100782.88;2616139;39;20425;-66
2022/07/25 21:09:55;;;;;;;2.20;1.88;;;;;;;25.61;100.00;100783.91;2615812;54;20172;-65
2022/07/25 21:12:25;;;;;;;1.55;1.45;;;;;;;25.20;100.00;100782.75;2615886;54;20162;-65
2022/07/25 21:15:02;;;;;;;4.40;4.03;;;;;;;24.73;100.00;100784.91;2615694;47;20171;-66
2022/07/25 21:17:32;;;;;;;3.45;1.50;;;;;;;24.88;100.00;100785.78;2616051;54;20142;-66
2022/07/25 21:20:05;;;;;;;2.28;1.17;;;;;;;24.69;100.00;100787.94;2616240;47;20669;-65
2022/07/25 21:22:36;;;;;;;1.27;1.13;;;;;;;24.67;100.00;100779.31;2616540;47;20153;-65
2022/07/25 21:25:07;;;;;;;0.03;0.03;;;;;;;24.74;100.00;100781.25;2616375;54;20141;-68
2022/07/25 21:27:38;;;;;;;0.40;0.40;;;;;;;24.63;100.00;100783.34;2616388;47;20146;-66
2022/07/25 21:30:11;;;;;;;0.98;0.98;;;;;;;24.33;100.00;100789.59;2616410;47;20163;-65
2022/07/25 21:32:43;;;;;;;0.13;0.13;;;;;;;24.26;100.00;100786.03;2616470;54;20145;-65
2022/07/25 21:35:16;;;;;;;0.00;0.00;;;;;;;24.29;100.00;100788.31;2616820;39;20564;-65
2022/07/25 21:37:47;;;;;;;0.00;0.00;;;;;;;24.39;100.00;100786.25;2616418;54;20180;-66
2022/07/25 21:40:17;;;;;;;0.70;0.70;;;;;;;24.50;100.00;100783.16;2616238;48;20507;-65
2022/07/25 21:42:47;;;;;;;0.55;0.50;;;;;;;24.23;100.00;100789.84;2616296;47;20280;-66
2022/07/25 21:45:18;;;;;;;0.73;0.73;;;;;;;24.21;100.00;100791.03;2616451;54;20146;-65
2022/07/25 21:47:48;;;;;;;0.70;0.70;;;;;;;24.22;100.00;100790.03;2616510;54;20672;-65
2022/07/25 21:53:12;;;;;;;0.00;0.00;;;;;;;24.62;100.00;100792.34;2616325;54;20172;-65
2022/07/25 21:55:42;;;;;;;0.00;0.00;;;;;;;24.77;100.00;100791.50;2616051;54;20153;-65
2022/07/25 21:58:13;;;;;;;2.05;1.95;;;;;;;25.19;100.00;100786.44;2616291;54;20142;-65
2022/07/25 22:00:43;;;;;;;0.43;0.43;;;;;;;24.99;100.00;100780.84;2616641;39;20571;-66
2022/07/25 22:03:14;;;;;;;0.17;0.17;;;;;;;24.67;100.00;100787.28;2616405;54;20145;-66
2022/07/25 22:05:47;;;;;;;0.43;0.10;;;;;;;24.70;100.00;100778.97;2616122;54;20152;-65
2022/07/25 22:08:18;;;;;;;0.85;0.85;;;;;;;25.21;100.00;100783.56;2615969;54;20162;-66
2022/07/25 22:10:48;;;;;;;0.10;0.10;;;;;;;25.88;100.00;100784.19;2616094;54;20142;-65
2022/07/25 22:13:18;;;;;;;0.00;0.00;;;;;;;25.91;100.00;100781.16;2616389;54;20145;-66
2022/07/25 22:15:49;;;;;;;0.00;0.00;;;;;;;25.45;100.00;100772.63;2616766;54;20689;-66
2022/07/25 22:18:19;;;;;;;0.00;0.00;;;;;;;25.98;100.00;100772.22;2617212;54;20141;-65
2022/07/25 22:20:53;;;;;;;0.82;0.77;;;;;;;26.61;100.00;100769.66;2616923;54;20168;-66
2022/07/25 22:23:23;;;;;;;0.00;0.00;;;;;;;26.85;100.00;100770.06;2617052;54;20164;-66